sensor_id;sensor_type;location;lat;lon;timestamp;pressure;altitude;pressure_sealevel;temperature;humidity
59073;BME280;44859;51.934;15.554;2022-10-16T00:00:57;99501.73;;;12.94;100.00
59073;BME280;44859;51.934;15.554;2022-10-16T00:03:40;99504.79;;;12.96;100.00
59073;BME280;44859;51.934;15.554;2022-10-16T00:06:19;99507.58;;;13.00;100.00
59073;BME280;44859;51.934;15.554;2022-10-16T00:08:51;99507.08;;;13.02;100.00
59073;BME280;44859;51.934;15.554;2022-10-16T00:11:31;99502.54;;;13.04;100.00
59073;BME280;44859;51.934;15.554;2022-10-16T00:14:14;99499.73;;;13.07;100.00
59073;BME280;44859;51.934;15.554;2022-10-16T00:16:58;99504.70;;;13.09;100.00
59073;BME280;44859;51.934;15.554;2022-10-16T00:19:58;99500.11;;;13.11;100.00
59073;BME280;44859;51.934;15.554;2022-10-16T00:22:33;99498.66;;;13.12;100.00
59073;BME280;44859;51.934;15.554;2022-10-16T00:25:34;99500.48;;;13.14;100.00
59073;BME280;44859;51.934;15.554;2022-10-16T00:28:09;99502.61;;;13.17;100.00
59073;BME280;44859;51.934;15.554;2022-10-16T00:30:41;99501.71;;;13.17;100.00
59073;BME280;44859;51.934;15.554;2022-10-16T00:33:22;99505.91;;;13.18;100.00
59073;BME280;44859;51.934;15.554;2022-10-16T00:36:00;99512.58;;;13.18;100.00
59073;BME280;44859;51.934;15.554;2022-10-16T00:38:37;99517.48;;;13.18;100.00
59073;BME280;44859;51.934;15.554;2022-10-16T00:41:14;99520.66;;;13.19;100.00
59073;BME280;44859;51.934;15.554;2022-10-16T00:44:02;99523.64;;;13.19;100.00
59073;BME280;44859;51.934;15.554;2022-10-16T00:46:40;99523.84;;;13.18;100.00
59073;BME280;44859;51.934;15.554;2022-10-16T00:49:15;99518.87;;;13.19;100.00
59073;BME280;44859;51.934;15.554;2022-10-16T00:51:50;99516.41;;;13.19;100.00
59073;BME280;44859;51.934;15.554;2022-10-16T00:54:26;99522.73;;;13.19;100.00
59073;BME280;44859;51.934;15.554;2022-10-16T00:57:02;99519.90;;;13.19;100.00
59073;BME280;44859;51.934;15.554;2022-10-16T00:59:35;99516.13;;;13.20;100.00
59073;BME280;44859;51.934;15.554;2022-10-16T01:02:08;99519.80;;;13.21;100.00
59073;BME280;44859;51.934;15.554;2022-10-16T01:04:44;99522.16;;;13.22;100.00
59073;BME280;44859;51.934;15.554;2022-10-16T01:10:35;99522.20;;;13.25;100.00
59073;BME280;44859;51.934;15.554;2022-10-16T01:13:27;99523.96;;;13.27;100.00
59073;BME280;44859;51.934;15.554;2022-10-16T01:16:06;99526.05;;;13.30;100.00
59073;BME280;44859;51.934;15.554;2022-10-16T01:18:46;99527.68;;;13.33;100.00
59073;BME280;44859;51.934;15.554;2022-10-16T01:21:39;99536.05;;;13.35;100.00
59073;BME280;44859;51.934;15.554;2022-10-16T01:27:15;99545.70;;;13.39;100.00
59073;BME280;44859;51.934;15.554;2022-10-16T01:30:12;99547.39;;;13.42;100.00
59073;BME280;44859;51.934;15.554;2022-10-16T01:32:50;99545.58;;;13.46;100.00
59073;BME280;44859;51.934;15.554;2022-10-16T01:35:41;99551.32;;;13.50;100.00
59073;BME280;44859;51.934;15.554;2022-10-16T01:41:00;99551.61;;;13.56;100.00
59073;BME280;44859;51.934;15.554;2022-10-16T01:43:34;99553.05;;;13.59;100.00
59073;BME280;44859;51.934;15.554;2022-10-16T01:46:13;99554.16;;;13.60;100.00
59073;BME280;44859;51.934;15.554;2022-10-16T01:48:50;99556.14;;;13.62;100.00
59073;BME280;44859;51.934;15.554;2022-10-16T01:51:25;99553.65;;;13.65;100.00
59073;BME280;44859;51.934;15.554;2022-10-16T01:54:08;99552.20;;;13.69;100.00
59073;BME280;44859;51.934;15.554;2022-10-16T01:56:50;99553.27;;;13.71;100.00
59073;BME280;44859;51.934;15.554;2022-10-16T01:59:21;99558.11;;;13.73;100.00
59073;BME280;44859;51.934;15.554;2022-10-16T02:01:59;99561.01;;;13.75;100.00
59073;BME280;44859;51.934;15.554;2022-10-16T02:04:55;99560.27;;;13.75;100.00
59073;BME280;44859;51.934;15.554;2022-10-16T02:07:30;99558.11;;;13.76;100.00
59073;BME280;44859;51.934;15.554;2022-10-16T02:10:04;99559.70;;;13.76;100.00
59073;BME280;44859;51.934;15.554;2022-10-16T02:13:02;99557.62;;;13.75;100.00
59073;BME280;44859;51.934;15.554;2022-10-16T02:15:33;99553.08;;;13.75;100.00
59073;BME280;44859;51.934;15.554;2022-10-16T02:18:10;99547.83;;;13.74;100.00
59073;BME280;44859;51.934;15.554;2022-10-16T02:23:58;99556.04;;;13.72;100.00
59073;BME280;44859;51.934;15.554;2022-10-16T02:26:43;99560.30;;;13.72;100.00
59073;BME280;44859;51.934;15.554;2022-10-16T02:29:25;99559.35;;;13.73;100.00
59073;BME280;44859;51.934;15.554;2022-10-16T02:32:04;99561.15;;;13.72;100.00
59073;BME280;44859;51.934;15.554;2022-10-16T02:34:34;99565.77;;;13.72;100.00
59073;BME280;44859;51.934;15.554;2022-10-16T02:37:07;99566.33;;;13.72;100.00
59073;BME280;44859;51.934;15.554;2022-10-16T02:39:37;99567.39;;;13.72;100.00
59073;BME280;44859;51.934;15.554;2022-10-16T02:42:17;99566.32;;;13.72;100.00
59073;BME280;44859;51.934;15.554;2022-10-16T02:45:01;99573.73;;;13.72;100.00
59073;BME280;44859;51.934;15.554;2022-10-16T02:47:29;99572.79;;;13.70;100.00
59073;BME280;44859;51.934;15.554;2022-10-16T02:50:03;99573.89;;;13.69;100.00
59073;BME280;44859;51.934;15.554;2022-10-16T02:52:32;99573.87;;;13.70;100.00
59073;BME280;44859;51.934;15.554;2022-10-16T02:55:02;99568.80;;;13.69;100.00
59073;BME280;44859;51.934;15.554;2022-10-16T02:57:33;99570.19;;;13.69;100.00
59073;BME280;44859;51.934;15.554;2022-10-16T03:00:11;99572.63;;;13.67;100.00
59073;BME280;44859;51.934;15.554;2022-10-16T03:02:40;99568.09;;;13.66;100.00
59073;BME280;44859;51.934;15.554;2022-10-16T03:05:11;99569.51;;;13.63;100.00
59073;BME280;44859;51.934;15.554;2022-10-16T03:07:40;99578.46;;;13.61;100.00
59073;BME280;44859;51.934;15.554;2022-10-16T03:10:12;99584.79;;;13.59;100.00
59073;BME280;44859;51.934;15.554;2022-10-16T03:12:47;99582.34;;;13.56;100.00
59073;BME280;44859;51.934;15.554;2022-10-16T03:15:15;99589.91;;;13.53;100.00
59073;BME280;44859;51.934;15.554;2022-10-16T03:17:45;99588.87;;;13.50;100.00
59073;BME280;44859;51.934;15.554;2022-10-16T03:20:16;99584.76;;;13.48;100.00
59073;BME280;44859;51.934;15.554;2022-10-16T03:22:58;99587.79;;;13.48;100.00
59073;BME280;44859;51.934;15.554;2022-10-16T03:25:26;99590.88;;;13.49;100.00
59073;BME280;44859;51.934;15.554;2022-10-16T03:27:54;99598.20;;;13.51;100.00
59073;BME280;44859;51.934;15.554;2022-10-16T03:30:23;99599.42;;;13.51;100.00
59073;BME280;44859;51.934;15.554;2022-10-16T03:32:53;99598.61;;;13.52;100.00
59073;BME280;44859;51.934;15.554;2022-10-16T03:35:23;99596.69;;;13.52;100.00
59073;BME280;44859;51.934;15.554;2022-10-16T03:37:54;99596.71;;;13.52;100.00
59073;BME280;44859;51.934;15.554;2022-10-16T03:40:25;99590.75;;;13.51;100.00
59073;BME280;44859;51.934;15.554;2022-10-16T03:42:54;99593.09;;;13.51;100.00
59073;BME280;44859;51.934;15.554;2022-10-16T03:45:38;99595.77;;;13.50;100.00
59073;BME280;44859;51.934;15.554;2022-10-16T03:48:13;99598.71;;;13.48;100.00
59073;BME280;44859;51.934;15.554;2022-10-16T03:50:49;99603.52;;;13.47;100.00
59073;BME280;44859;51.934;15.554;2022-10-16T03:53:20;99606.42;;;13.46;100.00
59073;BME280;44859;51.934;15.554;2022-10-16T03:55:54;99606.23;;;13.43;100.00
59073;BME280;44859;51.934;15.554;2022-10-16T03:58:25;99603.69;;;13.42;100.00
59073;BME280;44859;51.934;15.554;2022-10-16T04:01:01;99604.19;;;13.40;100.00
59073;BME280;44859;51.934;15.554;2022-10-16T04:03:30;99607.08;;;13.39;100.00
59073;BME280;44859;51.934;15.554;2022-10-16T04:06:04;99609.30;;;13.37;100.00
59073;BME280;44859;51.934;15.554;2022-10-16T04:08:42;99610.17;;;13.34;100.00
59073;BME280;44859;51.934;15.554;2022-10-16T04:11:11;99614.67;;;13.32;100.00
59073;BME280;44859;51.934;15.554;2022-10-16T04:13:40;99618.73;;;13.32;100.00
59073;BME280;44859;51.934;15.554;2022-10-16T04:16:15;99621.28;;;13.30;100.00
59073;BME280;44859;51.934;15.554;2022-10-16T04:18:48;99621.13;;;13.30;100.00
59073;BME280;44859;51.934;15.554;2022-10-16T04:21:17;99618.78;;;13.31;100.00
59073;BME280;44859;51.934;15.554;2022-10-16T04:23:47;99616.36;;;13.34;100.00
59073;BME280;44859;51.934;15.554;2022-10-16T04:26:15;99619.85;;;13.37;100.00
59073;BME280;44859;51.934;15.554;2022-10-16T04:28:45;99620.69;;;13.41;100.00
59073;BME280;44859;51.934;15.554;2022-10-16T04:31:21;99624.48;;;13.42;100.00
59073;BME280;44859;51.934;15.554;2022-10-16T04:33:56;99627.17;;;13.44;100.00
59073;BME280;44859;51.934;15.554;2022-10-16T04:36:26;99630.46;;;13.45;100.00
59073;BME280;44859;51.934;15.554;2022-10-16T04:38:58;99632.26;;;13.45;100.00
59073;BME280;44859;51.934;15.554;2022-10-16T04:41:29;99633.27;;;13.45;100.00
59073;BME280;44859;51.934;15.554;2022-10-16T04:43:57;99636.70;;;13.47;100.00
59073;BME280;44859;51.934;15.554;2022-10-16T04:46:28;99642.75;;;13.49;100.00
59073;BME280;44859;51.934;15.554;2022-10-16T04:48:56;99644.21;;;13.48;100.00
59073;BME280;44859;51.934;15.554;2022-10-16T04:51:24;99647.39;;;13.48;100.00
59073;BME280;44859;51.934;15.554;2022-10-16T04:53:54;99649.70;;;13.48;100.00
59073;BME280;44859;51.934;15.554;2022-10-16T04:56:22;99656.23;;;13.47;100.00
59073;BME280;44859;51.934;15.554;2022-10-16T04:58:54;99662.40;;;13.48;100.00
59073;BME280;44859;51.934;15.554;2022-10-16T05:01:27;99663.23;;;13.49;100.00
59073;BME280;44859;51.934;15.554;2022-10-16T05:03:58;99658.52;;;13.51;100.00
59073;BME280;44859;51.934;15.554;2022-10-16T05:06:29;99663.13;;;13.53;100.00
59073;BME280;44859;51.934;15.554;2022-10-16T05:09:00;99662.97;;;13.56;100.00
59073;BME280;44859;51.934;15.554;2022-10-16T05:11:34;99663.31;;;13.59;100.00
59073;BME280;44859;51.934;15.554;2022-10-16T05:14:02;99662.32;;;13.61;100.00
59073;BME280;44859;51.934;15.554;2022-10-16T05:16:32;99656.61;;;13.61;100.00
59073;BME280;44859;51.934;15.554;2022-10-16T05:19:00;99654.23;;;13.63;100.00
59073;BME280;44859;51.934;15.554;2022-10-16T05:21:48;99655.77;;;13.63;100.00
59073;BME280;44859;51.934;15.554;2022-10-16T05:24:16;99654.70;;;13.64;100.00
59073;BME280;44859;51.934;15.554;2022-10-16T05:26:44;99660.14;;;13.64;100.00
59073;BME280;44859;51.934;15.554;2022-10-16T05:29:15;99652.70;;;13.64;100.00
59073;BME280;44859;51.934;15.554;2022-10-16T05:31:51;99651.17;;;13.64;100.00
59073;BME280;44859;51.934;15.554;2022-10-16T05:34:22;99655.48;;;13.62;100.00
59073;BME280;44859;51.934;15.554;2022-10-16T05:36:50;99658.73;;;13.61;100.00
59073;BME280;44859;51.934;15.554;2022-10-16T05:39:19;99661.25;;;13.60;100.00
59073;BME280;44859;51.934;15.554;2022-10-16T05:41:49;99664.50;;;13.59;100.00
59073;BME280;44859;51.934;15.554;2022-10-16T05:44:17;99666.16;;;13.58;100.00
59073;BME280;44859;51.934;15.554;2022-10-16T05:46:48;99664.97;;;13.57;100.00
59073;BME280;44859;51.934;15.554;2022-10-16T05:49:23;99669.58;;;13.57;100.00
59073;BME280;44859;51.934;15.554;2022-10-16T05:51:52;99671.45;;;13.58;100.00
59073;BME280;44859;51.934;15.554;2022-10-16T05:54:20;99673.81;;;13.60;100.00
59073;BME280;44859;51.934;15.554;2022-10-16T05:56:51;99678.70;;;13.61;100.00
59073;BME280;44859;51.934;15.554;2022-10-16T05:59:19;99681.16;;;13.61;100.00
59073;BME280;44859;51.934;15.554;2022-10-16T06:01:48;99681.58;;;13.60;100.00
59073;BME280;44859;51.934;15.554;2022-10-16T06:04:20;99681.59;;;13.60;100.00
59073;BME280;44859;51.934;15.554;2022-10-16T06:06:59;99687.73;;;13.60;100.00
59073;BME280;44859;51.934;15.554;2022-10-16T06:09:33;99691.86;;;13.59;100.00
59073;BME280;44859;51.934;15.554;2022-10-16T06:12:08;99693.30;;;13.59;100.00
59073;BME280;44859;51.934;15.554;2022-10-16T06:14:40;99704.09;;;13.58;100.00
59073;BME280;44859;51.934;15.554;2022-10-16T06:17:08;99710.08;;;13.58;100.00
59073;BME280;44859;51.934;15.554;2022-10-16T06:19:36;99711.45;;;13.59;100.00
59073;BME280;44859;51.934;15.554;2022-10-16T06:22:04;99708.79;;;13.62;100.00
59073;BME280;44859;51.934;15.554;2022-10-16T06:24:33;99709.48;;;13.65;100.00
59073;BME280;44859;51.934;15.554;2022-10-16T06:27:03;99705.40;;;13.69;100.00
59073;BME280;44859;51.934;15.554;2022-10-16T06:29:32;99708.61;;;13.73;100.00
59073;BME280;44859;51.934;15.554;2022-10-16T06:32:00;99706.35;;;13.78;100.00
59073;BME280;44859;51.934;15.554;2022-10-16T06:34:28;99714.86;;;13.84;100.00
59073;BME280;44859;51.934;15.554;2022-10-16T06:36:56;99722.42;;;13.87;100.00
59073;BME280;44859;51.934;15.554;2022-10-16T06:39:24;99728.09;;;13.89;100.00
59073;BME280;44859;51.934;15.554;2022-10-16T06:41:52;99739.61;;;13.94;100.00
59073;BME280;44859;51.934;15.554;2022-10-16T06:44:21;99748.17;;;13.98;100.00
59073;BME280;44859;51.934;15.554;2022-10-16T06:46:49;99751.50;;;14.01;100.00
59073;BME280;44859;51.934;15.554;2022-10-16T06:49:17;99748.43;;;14.06;100.00
59073;BME280;44859;51.934;15.554;2022-10-16T06:51:50;99747.14;;;14.09;100.00
59073;BME280;44859;51.934;15.554;2022-10-16T06:54:18;99754.48;;;14.13;100.00
59073;BME280;44859;51.934;15.554;2022-10-16T06:56:47;99757.20;;;14.17;100.00
59073;BME280;44859;51.934;15.554;2022-10-16T06:59:15;99760.38;;;14.20;100.00
59073;BME280;44859;51.934;15.554;2022-10-16T07:01:43;99770.81;;;14.23;100.00
59073;BME280;44859;51.934;15.554;2022-10-16T07:04:12;99769.94;;;14.23;100.00
59073;BME280;44859;51.934;15.554;2022-10-16T07:06:40;99768.58;;;14.22;100.00
59073;BME280;44859;51.934;15.554;2022-10-16T07:09:09;99767.88;;;14.22;100.00
59073;BME280;44859;51.934;15.554;2022-10-16T07:11:39;99762.79;;;14.21;100.00
59073;BME280;44859;51.934;15.554;2022-10-16T07:14:18;99760.69;;;14.21;100.00
59073;BME280;44859;51.934;15.554;2022-10-16T07:16:48;99756.73;;;14.22;100.00
59073;BME280;44859;51.934;15.554;2022-10-16T07:19:16;99756.28;;;14.23;100.00
59073;BME280;44859;51.934;15.554;2022-10-16T07:21:45;99762.05;;;14.24;100.00
59073;BME280;44859;51.934;15.554;2022-10-16T07:24:15;99762.65;;;14.23;100.00
59073;BME280;44859;51.934;15.554;2022-10-16T07:26:45;99765.05;;;14.24;100.00
59073;BME280;44859;51.934;15.554;2022-10-16T07:29:18;99769.66;;;14.29;100.00
59073;BME280;44859;51.934;15.554;2022-10-16T07:31:48;99765.70;;;14.36;100.00
59073;BME280;44859;51.934;15.554;2022-10-16T07:34:18;99771.73;;;14.42;100.00
59073;BME280;44859;51.934;15.554;2022-10-16T07:36:48;99771.58;;;14.49;100.00
59073;BME280;44859;51.934;15.554;2022-10-16T07:39:17;99764.95;;;14.62;100.00
59073;BME280;44859;51.934;15.554;2022-10-16T07:41:45;99763.01;;;14.78;100.00
59073;BME280;44859;51.934;15.554;2022-10-16T07:44:15;99767.85;;;14.95;100.00
59073;BME280;44859;51.934;15.554;2022-10-16T07:46:43;99769.19;;;15.10;99.85
59073;BME280;44859;51.934;15.554;2022-10-16T07:49:12;99773.64;;;15.25;99.39
59073;BME280;44859;51.934;15.554;2022-10-16T07:51:40;99772.55;;;15.36;99.28
59073;BME280;44859;51.934;15.554;2022-10-16T07:54:09;99777.42;;;15.42;98.62
59073;BME280;44859;51.934;15.554;2022-10-16T07:56:38;99783.63;;;15.44;98.33
59073;BME280;44859;51.934;15.554;2022-10-16T07:59:10;99786.58;;;15.53;98.20
59073;BME280;44859;51.934;15.554;2022-10-16T08:01:38;99790.17;;;15.60;97.62
59073;BME280;44859;51.934;15.554;2022-10-16T08:04:07;99790.96;;;15.71;97.49
59073;BME280;44859;51.934;15.554;2022-10-16T08:06:38;99786.27;;;15.78;96.99
59073;BME280;44859;51.934;15.554;2022-10-16T08:09:07;99783.98;;;15.83;96.38
59073;BME280;44859;51.934;15.554;2022-10-16T08:11:36;99793.22;;;15.88;96.38
59073;BME280;44859;51.934;15.554;2022-10-16T08:14:04;99791.99;;;15.95;95.90
59073;BME280;44859;51.934;15.554;2022-10-16T08:16:33;99795.08;;;15.99;95.56
59073;BME280;44859;51.934;15.554;2022-10-16T08:19:01;99793.29;;;16.04;95.37
59073;BME280;44859;51.934;15.554;2022-10-16T08:21:29;99789.98;;;16.11;95.10
59073;BME280;44859;51.934;15.554;2022-10-16T08:23:58;99794.84;;;16.17;94.99
59073;BME280;44859;51.934;15.554;2022-10-16T08:26:27;99801.52;;;16.23;94.50
59073;BME280;44859;51.934;15.554;2022-10-16T08:28:56;99808.31;;;16.30;94.38
59073;BME280;44859;51.934;15.554;2022-10-16T08:31:24;99812.17;;;16.37;93.45
59073;BME280;44859;51.934;15.554;2022-10-16T08:33:55;99805.62;;;16.47;93.63
59073;BME280;44859;51.934;15.554;2022-10-16T08:36:23;99810.63;;;16.51;92.96
59073;BME280;44859;51.934;15.554;2022-10-16T08:38:51;99814.98;;;16.55;92.70
59073;BME280;44859;51.934;15.554;2022-10-16T08:47:26;99823.75;;;16.71;92.12
59073;BME280;44859;51.934;15.554;2022-10-16T08:50:08;99819.06;;;16.77;91.38
59073;BME280;44859;51.934;15.554;2022-10-16T08:52:40;99819.23;;;16.84;91.13
59073;BME280;44859;51.934;15.554;2022-10-16T08:58:13;99834.98;;;16.99;90.62
59073;BME280;44859;51.934;15.554;2022-10-16T09:00:43;99833.67;;;17.00;90.03
59073;BME280;44859;51.934;15.554;2022-10-16T09:11:39;99839.20;;;17.28;88.29
59073;BME280;44859;51.934;15.554;2022-10-16T09:19:58;99838.51;;;17.51;86.74
59073;BME280;44859;51.934;15.554;2022-10-16T09:22:31;99839.63;;;17.67;85.61
59073;BME280;44859;51.934;15.554;2022-10-16T09:25:11;99833.08;;;17.75;84.55
59073;BME280;44859;51.934;15.554;2022-10-16T09:27:42;99830.64;;;17.77;83.95
59073;BME280;44859;51.934;15.554;2022-10-16T09:30:18;99832.90;;;17.78;83.91
59073;BME280;44859;51.934;15.554;2022-10-16T09:32:50;99833.48;;;17.84;83.35
59073;BME280;44859;51.934;15.554;2022-10-16T09:35:31;99837.31;;;17.90;81.37
59073;BME280;44859;51.934;15.554;2022-10-16T09:38:00;99839.73;;;17.93;80.28
59073;BME280;44859;51.934;15.554;2022-10-16T09:40:37;99839.00;;;17.98;79.93
59073;BME280;44859;51.934;15.554;2022-10-16T09:43:28;99833.34;;;18.00;79.91
59073;BME280;44859;51.934;15.554;2022-10-16T09:46:09;99828.99;;;18.03;80.15
59073;BME280;44859;51.934;15.554;2022-10-16T09:48:50;99827.25;;;18.05;80.33
59073;BME280;44859;51.934;15.554;2022-10-16T09:51:31;99824.25;;;18.18;79.82
59073;BME280;44859;51.934;15.554;2022-10-16T09:54:13;99821.35;;;18.39;78.62
59073;BME280;44859;51.934;15.554;2022-10-16T10:00:53;99820.55;;;18.64;77.70
59073;BME280;44859;51.934;15.554;2022-10-16T10:03:35;99818.95;;;18.75;76.78
59073;BME280;44859;51.934;15.554;2022-10-16T10:06:26;99824.17;;;18.83;76.85
59073;BME280;44859;51.934;15.554;2022-10-16T10:11:42;99828.66;;;18.60;74.99
59073;BME280;44859;51.934;15.554;2022-10-16T10:14:26;99839.90;;;18.51;75.50
59073;BME280;44859;51.934;15.554;2022-10-16T10:19:47;99852.88;;;18.56;75.73
59073;BME280;44859;51.934;15.554;2022-10-16T10:35:14;99854.55;;;18.88;73.86
59073;BME280;44859;51.934;15.554;2022-10-16T10:38:06;99860.96;;;18.83;72.81
59073;BME280;44859;51.934;15.554;2022-10-16T10:46:55;99861.80;;;18.93;72.49
59073;BME280;44859;51.934;15.554;2022-10-16T10:54:57;99872.04;;;18.63;72.96
59073;BME280;44859;51.934;15.554;2022-10-16T10:57:33;99877.93;;;18.52;73.42
59073;BME280;44859;51.934;15.554;2022-10-16T11:05:43;99874.79;;;18.26;73.88
59073;BME280;44859;51.934;15.554;2022-10-16T11:10:59;99873.06;;;18.23;73.15
59073;BME280;44859;51.934;15.554;2022-10-16T11:16:17;99869.02;;;18.50;74.18
59073;BME280;44859;51.934;15.554;2022-10-16T11:21:45;99859.16;;;18.72;73.93
59073;BME280;44859;51.934;15.554;2022-10-16T11:25:06;99868.13;;;18.87;73.30
59073;BME280;44859;51.934;15.554;2022-10-16T11:36:45;99886.84;;;19.13;73.04
59073;BME280;44859;51.934;15.554;2022-10-16T11:39:29;99891.67;;;19.47;71.81
59073;BME280;44859;51.934;15.554;2022-10-16T11:42:18;99886.56;;;19.63;70.53
59073;BME280;44859;51.934;15.554;2022-10-16T11:53:31;99880.71;;;20.11;69.63
59073;BME280;44859;51.934;15.554;2022-10-16T11:56:03;99883.24;;;19.82;69.35
59073;BME280;44859;51.934;15.554;2022-10-16T11:58:41;99885.07;;;19.62;69.26
59073;BME280;44859;51.934;15.554;2022-10-16T12:01:25;99889.45;;;19.56;69.24
59073;BME280;44859;51.934;15.554;2022-10-16T12:04:05;99885.71;;;19.58;68.72
59073;BME280;44859;51.934;15.554;2022-10-16T12:06:45;99883.10;;;19.87;68.21
59073;BME280;44859;51.934;15.554;2022-10-16T12:09:31;99888.14;;;19.97;67.48
59073;BME280;44859;51.934;15.554;2022-10-16T12:12:00;99893.56;;;19.94;66.96
59073;BME280;44859;51.934;15.554;2022-10-16T12:14:37;99893.63;;;19.87;66.75
59073;BME280;44859;51.934;15.554;2022-10-16T12:17:37;99885.08;;;19.79;67.26
59073;BME280;44859;51.934;15.554;2022-10-16T12:23:00;99894.74;;;19.89;66.57
59073;BME280;44859;51.934;15.554;2022-10-16T12:25:43;99902.36;;;20.22;66.30
59073;BME280;44859;51.934;15.554;2022-10-16T12:28:19;99895.85;;;20.44;65.56
59073;BME280;44859;51.934;15.554;2022-10-16T12:31:01;99895.92;;;20.67;66.28
59073;BME280;44859;51.934;15.554;2022-10-16T12:33:40;99901.61;;;20.96;64.73
59073;BME280;44859;51.934;15.554;2022-10-16T12:36:30;99905.10;;;21.08;63.86
59073;BME280;44859;51.934;15.554;2022-10-16T12:39:01;99900.15;;;21.06;63.24
59073;BME280;44859;51.934;15.554;2022-10-16T12:41:32;99903.30;;;21.01;63.50
59073;BME280;44859;51.934;15.554;2022-10-16T12:44:03;99905.70;;;20.74;64.09
59073;BME280;44859;51.934;15.554;2022-10-16T12:46:34;99909.12;;;20.45;64.43
59073;BME280;44859;51.934;15.554;2022-10-16T12:51:42;99910.81;;;20.18;65.98
59073;BME280;44859;51.934;15.554;2022-10-16T12:54:18;99910.94;;;20.22;65.92
59073;BME280;44859;51.934;15.554;2022-10-16T13:15:24;99937.13;;;20.30;66.06
59073;BME280;44859;51.934;15.554;2022-10-16T13:18:05;99936.33;;;20.27;65.62
59073;BME280;44859;51.934;15.554;2022-10-16T13:21:14;99935.66;;;20.04;65.96
59073;BME280;44859;51.934;15.554;2022-10-16T13:29:34;99955.92;;;19.60;67.51
59073;BME280;44859;51.934;15.554;2022-10-16T13:32:07;99958.42;;;19.49;67.78
59073;BME280;44859;51.934;15.554;2022-10-16T13:34:56;99957.71;;;19.47;67.96
59073;BME280;44859;51.934;15.554;2022-10-16T13:38:02;99962.11;;;19.50;68.45
59073;BME280;44859;51.934;15.554;2022-10-16T13:46:13;99974.62;;;19.43;69.05
59073;BME280;44859;51.934;15.554;2022-10-16T13:49:05;99976.63;;;19.40;69.12
59073;BME280;44859;51.934;15.554;2022-10-16T13:51:56;99978.88;;;19.36;69.31
59073;BME280;44859;51.934;15.554;2022-10-16T13:54:27;99979.88;;;19.31;69.52
59073;BME280;44859;51.934;15.554;2022-10-16T13:57:11;99983.15;;;19.28;69.68
59073;BME280;44859;51.934;15.554;2022-10-16T14:00:03;99982.50;;;19.27;69.87
59073;BME280;44859;51.934;15.554;2022-10-16T14:03:05;99986.73;;;19.27;69.96
59073;BME280;44859;51.934;15.554;2022-10-16T14:05:58;99988.52;;;19.30;70.25
59073;BME280;44859;51.934;15.554;2022-10-16T14:09:02;99991.15;;;19.32;70.08
59073;BME280;44859;51.934;15.554;2022-10-16T14:11:48;99988.30;;;19.34;70.24
59073;BME280;44859;51.934;15.554;2022-10-16T14:14:19;99988.16;;;19.38;70.18
59073;BME280;44859;51.934;15.554;2022-10-16T14:16:58;99995.17;;;19.47;70.21
59073;BME280;44859;51.934;15.554;2022-10-16T14:19:29;100000.30;;;19.47;70.06
59073;BME280;44859;51.934;15.554;2022-10-16T14:21:59;100004.54;;;19.41;70.08
59073;BME280;44859;51.934;15.554;2022-10-16T14:24:42;100002.30;;;19.33;70.08
59073;BME280;44859;51.934;15.554;2022-10-16T14:27:38;100004.48;;;19.31;69.90
59073;BME280;44859;51.934;15.554;2022-10-16T14:30:18;100005.55;;;19.56;69.78
59073;BME280;44859;51.934;15.554;2022-10-16T14:33:02;100004.77;;;19.92;69.28
59073;BME280;44859;51.934;15.554;2022-10-16T14:35:37;100007.21;;;19.91;68.68
59073;BME280;44859;51.934;15.554;2022-10-16T14:38:23;100007.69;;;19.74;69.05
59073;BME280;44859;51.934;15.554;2022-10-16T14:41:03;100011.86;;;19.58;69.02
59073;BME280;44859;51.934;15.554;2022-10-16T14:43:55;100018.17;;;19.59;69.11
59073;BME280;44859;51.934;15.554;2022-10-16T14:46:35;100017.56;;;19.56;69.02
59073;BME280;44859;51.934;15.554;2022-10-16T14:52:12;100010.27;;;20.70;68.11
59073;BME280;44859;51.934;15.554;2022-10-16T14:54:41;100011.41;;;20.87;67.55
59073;BME280;44859;51.934;15.554;2022-10-16T14:57:23;100014.41;;;21.14;67.01
59073;BME280;44859;51.934;15.554;2022-10-16T14:59:54;100012.06;;;21.68;66.11
59073;BME280;44859;51.934;15.554;2022-10-16T15:02:31;100014.50;;;21.94;64.88
59073;BME280;44859;51.934;15.554;2022-10-16T15:05:27;100016.88;;;22.01;64.60
59073;BME280;44859;51.934;15.554;2022-10-16T15:07:56;100017.79;;;22.01;64.10
59073;BME280;44859;51.934;15.554;2022-10-16T15:10:28;100018.69;;;21.58;63.94
59073;BME280;44859;51.934;15.554;2022-10-16T15:12:58;100031.45;;;21.11;64.63
59073;BME280;44859;51.934;15.554;2022-10-16T15:15:33;100033.08;;;20.68;65.32
59073;BME280;44859;51.934;15.554;2022-10-16T15:18:03;100037.31;;;20.26;65.86
59073;BME280;44859;51.934;15.554;2022-10-16T15:20:36;100038.64;;;19.90;66.54
59073;BME280;44859;51.934;15.554;2022-10-16T15:23:38;100036.27;;;19.53;67.28
59073;BME280;44859;51.934;15.554;2022-10-16T15:26:50;100044.25;;;19.14;68.10
59073;BME280;44859;51.934;15.554;2022-10-16T15:29:18;100051.34;;;18.99;68.85
59073;BME280;44859;51.934;15.554;2022-10-16T15:31:47;100050.70;;;18.82;69.27
59073;BME280;44859;51.934;15.554;2022-10-16T15:34:19;100052.29;;;18.68;69.92
59073;BME280;44859;51.934;15.554;2022-10-16T15:36:57;100057.37;;;18.60;70.42
59073;BME280;44859;51.934;15.554;2022-10-16T15:39:44;100055.49;;;18.50;70.85
59073;BME280;44859;51.934;15.554;2022-10-16T15:42:16;100056.60;;;18.41;71.18
59073;BME280;44859;51.934;15.554;2022-10-16T15:44:45;100062.55;;;18.30;71.76